createdAt,value
2023-05-02T00:00:33.943Z,97271.06
2023-05-02T00:03:00.468Z,97270.72
2023-05-02T00:05:27.064Z,97274.34
2023-05-02T00:07:53.475Z,97272.03
2023-05-02T00:10:19.962Z,97271.91
2023-05-02T00:12:46.418Z,97268.34
2023-05-02T00:15:12.874Z,97262.34
2023-05-02T00:17:39.330Z,97264.53
2023-05-02T00:20:05.897Z,97269.59
2023-05-02T00:22:32.503Z,97268.56
2023-05-02T00:24:59.011Z,97270.38
2023-05-02T00:27:25.471Z,97266.47
2023-05-02T00:29:51.942Z,97261.16
2023-05-02T00:32:18.428Z,97257.78
2023-05-02T00:34:44.923Z,97260.91
2023-05-02T00:37:11.480Z,97254.56
2023-05-02T00:39:38.003Z,97254.06
2023-05-02T00:42:04.479Z,97256.31
2023-05-02T00:44:30.976Z,97254.56
2023-05-02T00:46:57.573Z,97256.78
2023-05-02T00:49:24.156Z,97253.59
2023-05-02T00:51:50.717Z,97245.38
2023-05-02T00:54:17.299Z,97254.00
2023-05-02T00:56:43.832Z,97257.91
2023-05-02T00:59:10.427Z,97246.28
2023-05-02T01:01:37.103Z,97249.00
2023-05-02T01:04:03.905Z,97243.63
2023-05-02T01:06:30.562Z,97246.41
2023-05-02T01:08:57.129Z,97246.03
2023-05-02T01:11:23.610Z,97246.34
2023-05-02T01:13:50.141Z,97251.75
2023-05-02T01:16:16.673Z,97250.25
2023-05-02T01:18:43.267Z,97251.56
2023-05-02T01:21:09.842Z,97259.72
2023-05-02T01:23:36.355Z,97258.81
2023-05-02T01:26:02.824Z,97248.03
2023-05-02T01:28:29.303Z,97261.16
2023-05-02T01:30:55.777Z,97259.97
2023-05-02T01:33:22.261Z,97254.47
2023-05-02T01:35:48.800Z,97253.47
2023-05-02T01:38:15.226Z,97252.22
2023-05-02T01:40:41.763Z,97246.84
2023-05-02T01:43:08.333Z,97256.03
2023-05-02T01:45:34.864Z,97257.84
2023-05-02T01:48:01.435Z,97250.88
2023-05-02T01:50:28.036Z,97253.88
2023-05-02T01:52:54.595Z,97256.19
2023-05-02T01:55:21.135Z,97259.88
2023-05-02T01:57:47.622Z,97253.94
2023-05-02T02:00:14.032Z,97263.88
2023-05-02T02:02:40.595Z,97266.66
2023-05-02T02:05:07.173Z,97265.19
2023-05-02T02:07:33.662Z,97268.97
2023-05-02T02:10:00.332Z,97277.66
2023-05-02T02:12:27.055Z,97277.13
2023-05-02T02:14:53.582Z,97272.72
2023-05-02T02:17:20.109Z,97279.34
2023-05-02T02:19:46.616Z,97271.97
2023-05-02T02:22:13.103Z,97275.56
2023-05-02T02:24:39.588Z,97277.34
2023-05-02T02:27:06.121Z,97281.94
2023-05-02T02:29:32.592Z,97281.63
2023-05-02T02:31:59.057Z,97282.94
2023-05-02T02:34:25.591Z,97284.06
2023-05-02T02:36:52.151Z,97285.06
2023-05-02T02:39:18.714Z,97278.03
2023-05-02T02:41:48.445Z,97275.88
2023-05-02T02:44:15.028Z,97275.81
2023-05-02T02:46:41.644Z,97282.19
2023-05-02T02:49:08.162Z,97276.28
2023-05-02T02:51:34.622Z,97279.94
2023-05-02T02:54:01.178Z,97277.13
2023-05-02T02:56:27.660Z,97287.75
2023-05-02T02:58:54.115Z,97278.41
2023-05-02T03:01:20.675Z,97275.44
2023-05-02T03:03:47.221Z,97280.09
2023-05-02T03:06:13.812Z,97284.91
2023-05-02T03:08:40.298Z,97280.75
2023-05-02T03:11:06.790Z,97278.38
2023-05-02T03:13:33.342Z,97279.56
2023-05-02T03:15:59.835Z,97278.81
2023-05-02T03:18:26.327Z,97284.44
2023-05-02T03:20:52.794Z,97284.03
2023-05-02T03:23:19.317Z,97294.69
2023-05-02T03:25:45.801Z,97289.00
2023-05-02T03:28:12.449Z,97282.25
2023-05-02T03:30:39.006Z,97287.50
2023-05-02T03:33:05.608Z,97284.19
2023-05-02T03:35:32.201Z,97294.50
2023-05-02T03:37:58.716Z,97297.16
2023-05-02T03:40:25.236Z,97298.88
2023-05-02T03:42:51.818Z,97297.16
2023-05-02T03:45:18.395Z,97299.66
2023-05-02T03:47:44.857Z,97305.19
2023-05-02T03:50:11.351Z,97292.59
2023-05-02T03:52:37.842Z,97291.91
2023-05-02T03:55:04.388Z,97300.38
2023-05-02T03:57:30.921Z,97290.72
2023-05-02T03:59:57.707Z,97285.97
2023-05-02T04:02:24.443Z,97292.97
2023-05-02T04:04:51.018Z,97293.66
2023-05-02T04:07:17.577Z,97298.66
2023-05-02T04:09:44.112Z,97295.59
2023-05-02T04:12:10.621Z,97296.00
2023-05-02T04:14:37.104Z,97294.00
2023-05-02T04:17:03.741Z,97300.38
2023-05-02T04:19:30.355Z,97308.28
2023-05-02T04:21:56.952Z,97306.94
2023-05-02T04:24:23.437Z,97305.59
2023-05-02T04:26:49.970Z,97302.38
2023-05-02T04:29:16.440Z,97307.47
2023-05-02T04:31:42.939Z,97297.63
2023-05-02T04:34:09.495Z,97307.22
2023-05-02T04:36:36.024Z,97308.94
2023-05-02T04:39:02.463Z,97316.66
2023-05-02T04:41:28.932Z,97316.25
2023-05-02T04:43:55.410Z,97321.03
2023-05-02T04:46:21.977Z,97326.03
2023-05-02T04:48:48.522Z,97324.31
2023-05-02T04:51:16.894Z,97328.97
2023-05-02T04:53:43.734Z,97331.44
2023-05-02T04:56:10.284Z,97338.34
2023-05-02T04:58:36.806Z,97343.84
2023-05-02T05:01:03.314Z,97348.59
2023-05-02T05:03:30.064Z,97346.97
2023-05-02T05:05:56.595Z,97349.22
2023-05-02T05:08:24.981Z,97358.56
2023-05-02T05:10:51.474Z,97356.81
2023-05-02T05:13:17.969Z,97355.13
2023-05-02T05:15:44.724Z,97363.81
2023-05-02T05:18:11.361Z,97365.47
2023-05-02T05:20:37.976Z,97364.25
2023-05-02T05:23:04.412Z,97371.53
2023-05-02T05:25:30.898Z,97375.28
2023-05-02T05:27:57.343Z,97365.63
2023-05-02T05:30:23.857Z,97372.91
2023-05-02T05:32:50.336Z,97364.69
2023-05-02T05:35:16.799Z,97377.75
2023-05-02T05:37:44.327Z,97378.03
2023-05-02T05:40:10.767Z,97374.16
2023-05-02T05:42:37.286Z,97374.44
2023-05-02T05:45:03.820Z,97373.69
2023-05-02T05:47:30.478Z,97381.06
2023-05-02T05:49:57.240Z,97382.78
2023-05-02T05:52:23.763Z,97381.78
2023-05-02T05:54:50.274Z,97380.53
2023-05-02T05:57:16.710Z,97378.53
2023-05-02T05:59:43.208Z,97379.88
2023-05-02T06:02:09.676Z,97386.72
2023-05-02T06:04:36.127Z,97397.28
2023-05-02T06:07:02.573Z,97397.09
2023-05-02T06:09:29.051Z,97393.50
2023-05-02T06:11:55.558Z,97399.63
2023-05-02T06:14:22.036Z,97404.59
2023-05-02T06:16:48.614Z,97411.94
2023-05-02T06:19:15.157Z,97413.06
2023-05-02T06:21:41.606Z,97408.84
2023-05-02T06:24:08.014Z,97415.59
2023-05-02T06:26:34.430Z,97416.91
2023-05-02T06:29:00.900Z,97403.41
2023-05-02T06:31:27.374Z,97416.09
2023-05-02T06:33:53.882Z,97404.97
2023-05-02T06:36:20.396Z,97414.19
2023-05-02T06:38:46.919Z,97408.72
2023-05-02T06:41:13.428Z,97413.81
2023-05-02T06:43:40.150Z,97410.75
2023-05-02T06:46:06.619Z,97413.81
2023-05-02T06:48:33.068Z,97407.22
2023-05-02T06:50:59.531Z,97412.41
2023-05-02T06:53:26.002Z,97417.06
2023-05-02T06:55:52.487Z,97414.53
2023-05-02T06:58:18.979Z,97419.72
2023-05-02T07:00:45.429Z,97418.31
2023-05-02T07:03:11.950Z,97421.38
2023-05-02T07:05:38.414Z,97420.09
2023-05-02T07:08:04.848Z,97413.06
2023-05-02T07:10:31.351Z,97409.09
2023-05-02T07:12:57.793Z,97411.50
2023-05-02T07:15:24.211Z,97410.03
2023-05-02T07:17:50.793Z,97421.59
2023-05-02T07:20:17.333Z,97421.66
2023-05-02T07:22:43.807Z,97419.97
2023-05-02T07:25:10.305Z,97427.88
2023-05-02T07:27:36.753Z,97421.09
2023-05-02T07:30:03.448Z,97416.00
2023-05-02T07:32:30.362Z,97417.00
2023-05-02T07:34:57.082Z,97417.78
2023-05-02T07:37:23.573Z,97415.22
2023-05-02T07:39:50.090Z,97412.50
2023-05-02T07:42:16.611Z,97407.22
2023-05-02T07:44:43.075Z,97417.78
2023-05-02T07:47:09.521Z,97412.03
2023-05-02T07:49:35.972Z,97407.69
2023-05-02T07:52:03.640Z,97407.69
2023-05-02T07:54:30.117Z,97411.72
2023-05-02T07:56:56.542Z,97406.75
2023-05-02T07:59:22.993Z,97390.22
2023-05-02T08:01:49.426Z,97400.88
2023-05-02T08:04:16.101Z,97396.94
2023-05-02T08:06:42.733Z,97399.47
2023-05-02T08:09:09.295Z,97397.88
2023-05-02T08:11:35.813Z,97391.53
2023-05-02T08:14:02.322Z,97403.72
2023-05-02T08:16:28.817Z,97401.19
2023-05-02T08:18:55.261Z,97408.03
2023-05-02T08:21:21.776Z,97405.66
2023-05-02T08:23:48.323Z,97406.72
2023-05-02T08:26:14.785Z,97401.94
2023-05-02T08:28:41.271Z,97406.38
2023-05-02T08:31:07.818Z,97404.09
2023-05-02T08:33:34.285Z,97405.91
2023-05-02T08:36:00.784Z,97404.19
2023-05-02T08:38:27.240Z,97396.50
2023-05-02T08:40:53.689Z,97397.59
2023-05-02T08:43:20.204Z,97397.88
2023-05-02T08:45:46.717Z,97403.31
2023-05-02T08:48:13.196Z,97401.06
2023-05-02T08:50:39.796Z,97410.19
2023-05-02T08:53:06.325Z,97404.13
2023-05-02T08:55:32.769Z,97400.84
2023-05-02T08:57:59.247Z,97403.91
2023-05-02T09:00:25.769Z,97417.25
2023-05-02T09:02:52.399Z,97407.75
2023-05-02T09:05:18.896Z,97407.13
2023-05-02T09:07:45.366Z,97421.41
2023-05-02T09:10:11.937Z,97416.78
2023-05-02T09:12:38.698Z,97406.44
2023-05-02T09:15:06.253Z,97410.31
2023-05-02T09:17:32.760Z,97404.41
2023-05-02T09:19:59.293Z,97423.66
2023-05-02T09:22:25.752Z,97421.06
2023-05-02T09:24:52.315Z,97424.84
2023-05-02T09:27:18.770Z,97427.53
2023-05-02T09:29:45.178Z,97418.03
2023-05-02T09:32:11.658Z,97417.38
2023-05-02T09:34:38.146Z,97421.75
2023-05-02T09:37:04.635Z,97421.75
2023-05-02T09:39:31.041Z,97430.19
2023-05-02T09:41:57.510Z,97427.84
2023-05-02T09:44:23.961Z,97420.22
2023-05-02T09:46:50.399Z,97431.22
2023-05-02T09:49:16.828Z,97420.28
2023-05-02T09:51:43.271Z,97420.22
2023-05-02T09:54:09.725Z,97433.19
2023-05-02T09:56:36.173Z,97421.28
2023-05-02T09:59:02.608Z,97425.53
2023-05-02T10:01:29.141Z,97431.81
2023-05-02T10:03:55.733Z,97427.53
2023-05-02T10:06:22.340Z,97438.00
2023-05-02T10:08:48.869Z,97436.09
2023-05-02T10:11:15.408Z,97437.94
2023-05-02T10:13:41.864Z,97444.66
2023-05-02T10:16:08.371Z,97438.34
2023-05-02T10:18:34.965Z,97436.56
2023-05-02T10:21:01.493Z,97445.66
2023-05-02T10:23:28.072Z,97434.06
2023-05-02T10:25:54.563Z,97433.56
2023-05-02T10:28:21.121Z,97431.72
2023-05-02T10:30:47.701Z,97428.63
2023-05-02T10:33:14.444Z,97423.81
2023-05-02T10:35:41.312Z,97419.84
2023-05-02T10:38:07.831Z,97417.75
2023-05-02T10:40:34.390Z,97425.09
2023-05-02T10:43:00.988Z,97417.69
2023-05-02T10:45:27.568Z,97412.38
2023-05-02T10:47:54.164Z,97403.81
2023-05-02T10:50:20.694Z,97412.38
2023-05-02T10:52:47.202Z,97420.25
2023-05-02T10:55:13.722Z,97419.50
2023-05-02T10:57:40.274Z,97372.91
2023-05-02T11:00:06.825Z,97379.75
2023-05-02T11:02:33.493Z,97377.22
2023-05-02T11:05:00.515Z,97379.94
2023-05-02T11:07:27.250Z,97383.41
2023-05-02T11:09:53.740Z,97376.75
2023-05-02T11:12:20.223Z,97377.84
2023-05-02T11:14:46.769Z,97369.06
2023-05-02T11:17:13.270Z,97368.97
2023-05-02T11:19:39.776Z,97404.66
2023-05-02T11:22:06.267Z,97399.19
2023-05-02T11:24:32.758Z,97404.06
2023-05-02T11:26:59.355Z,97414.59
2023-05-02T11:29:25.848Z,97411.81
2023-05-02T11:31:52.473Z,97411.78
2023-05-02T11:34:19.069Z,97408.84
2023-05-02T11:36:45.613Z,97409.09
2023-05-02T11:39:12.060Z,97399.59
2023-05-02T11:41:38.572Z,97401.31
2023-05-02T11:44:05.148Z,97398.50
2023-05-02T11:46:31.752Z,97404.09
2023-05-02T11:48:58.304Z,97405.91
2023-05-02T11:51:24.903Z,97411.41
2023-05-02T11:53:51.445Z,97404.03
2023-05-02T11:56:18.040Z,97400.13
2023-05-02T11:58:44.557Z,97410.16
2023-05-02T12:01:11.134Z,97404.50
2023-05-02T12:03:37.704Z,97392.94
2023-05-02T12:06:04.559Z,97396.00
2023-05-02T12:08:31.220Z,97395.31
2023-05-02T12:10:57.819Z,97401.31
2023-05-02T12:13:24.347Z,97410.16
2023-05-02T12:15:50.826Z,97406.81
2023-05-02T12:18:17.857Z,97407.59
2023-05-02T12:20:44.858Z,97407.44
2023-05-02T12:23:11.346Z,97412.53
2023-05-02T12:25:37.825Z,97415.59
2023-05-02T12:28:04.384Z,97417.63
2023-05-02T12:30:30.930Z,97409.28
2023-05-02T12:32:57.514Z,97412.78
2023-05-02T12:35:24.122Z,97413.59
2023-05-02T12:37:50.608Z,97415.06
2023-05-02T12:40:17.110Z,97411.03
2023-05-02T12:42:43.583Z,97417.38
2023-05-02T12:45:10.067Z,97405.31
2023-05-02T12:47:36.663Z,97408.06
2023-05-02T12:50:03.418Z,97406.38
2023-05-02T12:52:30.142Z,97403.84
2023-05-02T12:54:56.625Z,97398.69
2023-05-02T12:57:23.180Z,97402.16
2023-05-02T12:59:49.743Z,97398.59
2023-05-02T13:02:16.298Z,97409.09
2023-05-02T13:04:42.735Z,97392.53
2023-05-02T13:07:09.214Z,97396.28
2023-05-02T13:09:35.740Z,97401.16
2023-05-02T13:12:02.274Z,97397.41
2023-05-02T13:14:28.924Z,97394.97
2023-05-02T13:16:55.780Z,97396.22
2023-05-02T13:19:22.375Z,97392.03
2023-05-02T13:21:48.892Z,97388.91
2023-05-02T13:24:15.418Z,97389.84
2023-05-02T13:26:41.912Z,97394.75
2023-05-02T13:29:08.445Z,97397.69
2023-05-02T13:31:34.917Z,97392.25
2023-05-02T13:34:01.481Z,97395.59
2023-05-02T13:36:27.964Z,97394.75
2023-05-02T13:38:54.429Z,97389.09
2023-05-02T13:41:20.980Z,97389.09
2023-05-02T13:43:47.573Z,97385.59
2023-05-02T13:46:14.701Z,97386.09
2023-05-02T13:48:41.284Z,97380.50
2023-05-02T13:51:07.756Z,97391.69
2023-05-02T13:53:34.485Z,97390.03
2023-05-02T13:56:01.097Z,97387.63
2023-05-02T13:58:27.550Z,97389.84
2023-05-02T14:00:54.188Z,97387.63
2023-05-02T14:03:20.810Z,97391.63
2023-05-02T14:05:47.376Z,97400.13
2023-05-02T14:08:13.966Z,97389.81
2023-05-02T14:10:40.543Z,97383.34
2023-05-02T14:13:07.090Z,97375.56
2023-05-02T14:15:33.688Z,97387.06
2023-05-02T14:18:02.875Z,97390.16
2023-05-02T14:20:29.377Z,97393.16
2023-05-02T14:22:58.570Z,97382.25
2023-05-02T14:25:25.002Z,97391.94
2023-05-02T14:27:51.455Z,97383.97
2023-05-02T14:30:17.953Z,97382.94
2023-05-02T14:32:44.423Z,97391.81
2023-05-02T14:35:10.903Z,97398.84
2023-05-02T14:37:37.413Z,97395.81
2023-05-02T14:40:04.070Z,97389.81
2023-05-02T14:42:30.720Z,97396.97
2023-05-02T14:44:59.581Z,97392.00
2023-05-02T14:47:26.452Z,97389.09
2023-05-02T14:49:52.916Z,97396.09
2023-05-02T14:52:19.347Z,97375.84
2023-05-02T14:54:45.829Z,97384.06
2023-05-02T14:57:12.442Z,97373.34
2023-05-02T14:59:38.946Z,97386.84
2023-05-02T15:02:05.605Z,97377.66
2023-05-02T15:04:32.472Z,97380.38
2023-05-02T15:06:59.196Z,97373.13
2023-05-02T15:09:25.792Z,97371.78
2023-05-02T15:11:52.262Z,97366.41
2023-05-02T15:14:18.694Z,97374.09
2023-05-02T15:16:45.334Z,97372.88
2023-05-02T15:19:11.875Z,97370.38
2023-05-02T15:21:38.387Z,97365.03
2023-05-02T15:24:04.874Z,97369.16
2023-05-02T15:26:31.374Z,97375.50
2023-05-02T15:28:57.910Z,97373.09
2023-05-02T15:31:24.586Z,97377.66
2023-05-02T15:33:51.084Z,97381.06
2023-05-02T15:36:17.516Z,97378.22
2023-05-02T15:38:44.099Z,97375.63
2023-05-02T15:41:10.567Z,97378.22
2023-05-02T15:43:37.122Z,97366.94
2023-05-02T15:46:03.607Z,97388.06
2023-05-02T15:48:30.346Z,97384.31
2023-05-02T15:50:56.814Z,97375.00
2023-05-02T15:53:23.334Z,97385.69
2023-05-02T15:55:49.803Z,97380.97
2023-05-02T15:58:16.296Z,97378.66
2023-05-02T16:00:42.855Z,97384.97
2023-05-02T16:03:09.398Z,97385.53
2023-05-02T16:05:35.935Z,97383.75
2023-05-02T16:08:02.451Z,97393.41
2023-05-02T16:10:28.957Z,97384.66
2023-05-02T16:12:55.473Z,97386.31
2023-05-02T16:15:22.021Z,97386.31
2023-05-02T16:17:48.538Z,97386.09
2023-05-02T16:20:15.126Z,97373.34
2023-05-02T16:22:41.677Z,97382.47
2023-05-02T16:25:08.215Z,97383.50
2023-05-02T16:27:34.679Z,97376.38
2023-05-02T16:30:01.478Z,97373.09
2023-05-02T16:32:28.215Z,97389.75
2023-05-02T16:34:54.812Z,97382.53
2023-05-02T16:37:21.305Z,97384.72
2023-05-02T16:39:47.800Z,97385.50
2023-05-02T16:42:14.343Z,97375.97
2023-05-02T16:44:40.857Z,97380.09
2023-05-02T16:47:07.473Z,97391.28
2023-05-02T16:49:34.040Z,97389.28
2023-05-02T16:52:00.579Z,97389.50
2023-05-02T16:54:27.096Z,97379.31
2023-05-02T16:56:53.735Z,97388.94
2023-05-02T16:59:20.197Z,97390.44
2023-05-02T17:01:46.817Z,97383.97
2023-05-02T17:04:13.312Z,97382.03
2023-05-02T17:06:39.917Z,97381.47
2023-05-02T17:09:06.456Z,97378.56
2023-05-02T17:11:32.966Z,97383.94
2023-05-02T17:13:59.404Z,97389.81
2023-05-02T17:16:25.949Z,97388.25
2023-05-02T17:18:52.668Z,97389.94
2023-05-02T17:21:19.214Z,97395.34
2023-05-02T17:23:45.706Z,97390.31
2023-05-02T17:26:12.312Z,97397.25
2023-05-02T17:28:38.934Z,97393.84
2023-05-02T17:31:05.443Z,97392.47
2023-05-02T17:33:32.050Z,97396.97
2023-05-02T17:35:58.493Z,97405.41
2023-05-02T17:38:24.920Z,97406.34
2023-05-02T17:40:51.383Z,97364.13
2023-05-02T17:43:17.802Z,97368.00
2023-05-02T17:45:44.376Z,97377.13
2023-05-02T17:48:11.159Z,97375.78
2023-05-02T17:50:37.797Z,97375.63
2023-05-02T17:53:04.294Z,97378.97
2023-05-02T17:55:30.756Z,97384.19
2023-05-02T17:57:57.167Z,97376.50
2023-05-02T18:00:23.639Z,97377.34
2023-05-02T18:02:50.222Z,97386.38
2023-05-02T18:05:16.796Z,97378.94
2023-05-02T18:07:43.331Z,97420.97
2023-05-02T18:10:09.865Z,97419.34
2023-05-02T18:12:36.349Z,97427.00
2023-05-02T18:15:03.107Z,97429.94
2023-05-02T18:17:29.877Z,97420.25
2023-05-02T18:19:56.367Z,97417.53
2023-05-02T18:22:22.887Z,97417.59
2023-05-02T18:24:49.307Z,97424.66
2023-05-02T18:27:15.760Z,97420.38
2023-05-02T18:29:42.196Z,97429.41
2023-05-02T18:32:08.743Z,97422.84
2023-05-02T18:34:37.761Z,97426.84
2023-05-02T18:37:05.185Z,97417.91
2023-05-02T18:39:31.760Z,97416.88
2023-05-02T18:41:58.219Z,97431.19
2023-05-02T18:44:24.686Z,97425.28
2023-05-02T18:46:51.243Z,97424.28
2023-05-02T18:49:17.816Z,97432.78
2023-05-02T18:51:44.320Z,97434.72
2023-05-02T18:54:10.832Z,97437.44
2023-05-02T18:56:37.330Z,97432.09
2023-05-02T18:59:03.783Z,97433.97
2023-05-02T19:01:30.337Z,97435.66
2023-05-02T19:03:56.890Z,97431.69
2023-05-02T19:06:23.508Z,97431.09
2023-05-02T19:08:50.110Z,97428.19
2023-05-02T19:11:16.616Z,97431.91
2023-05-02T19:13:43.144Z,97430.63
2023-05-02T19:16:09.833Z,97433.09
2023-05-02T19:18:36.370Z,97433.09
2023-05-02T19:21:08.492Z,97430.72
2023-05-02T19:23:35.198Z,97425.19
2023-05-02T19:26:01.676Z,97426.81
2023-05-02T19:28:28.304Z,97425.28
2023-05-02T19:30:54.786Z,97433.13
2023-05-02T19:33:21.300Z,97436.38
2023-05-02T19:35:47.845Z,97438.28
2023-05-02T19:38:14.344Z,97440.06
2023-05-02T19:40:40.854Z,97445.91
2023-05-02T19:43:07.588Z,97433.97
2023-05-02T19:45:34.130Z,97455.16
2023-05-02T19:48:00.705Z,97449.88
2023-05-02T19:50:27.209Z,97451.34
2023-05-02T19:52:53.707Z,97444.75
2023-05-02T19:55:20.219Z,97440.88
2023-05-02T19:57:46.651Z,97445.13
2023-05-02T20:00:13.081Z,97446.34
2023-05-02T20:02:39.660Z,97458.44
2023-05-02T20:05:06.148Z,97455.94
2023-05-02T20:07:32.649Z,97463.00
2023-05-02T20:10:00.086Z,97459.53
2023-05-02T20:12:26.958Z,97461.50
2023-05-02T20:14:53.430Z,97457.25
2023-05-02T20:17:19.966Z,97454.31
2023-05-02T20:19:46.423Z,97454.31
2023-05-02T20:22:12.854Z,97452.84
2023-05-02T20:24:39.274Z,97455.91
2023-05-02T20:27:05.701Z,97451.09
2023-05-02T20:29:32.145Z,97456.94
2023-05-02T20:31:58.659Z,97451.69
2023-05-02T20:34:25.105Z,97458.94
2023-05-02T20:36:51.599Z,97475.19
2023-05-02T20:39:18.123Z,97471.16
2023-05-02T20:41:44.647Z,97474.38
2023-05-02T20:44:11.116Z,97471.66
2023-05-02T20:46:37.767Z,97476.09
2023-05-02T20:49:04.501Z,97479.75
2023-05-02T20:51:31.065Z,97479.53
2023-05-02T20:53:57.625Z,97470.13
2023-05-02T20:56:24.120Z,97472.47
2023-05-02T20:58:50.626Z,97479.97
2023-05-02T21:01:17.169Z,97465.78
2023-05-02T21:03:43.882Z,97478.56
2023-05-02T21:06:10.571Z,97468.50
2023-05-02T21:08:37.201Z,97469.63
2023-05-02T21:11:03.759Z,97469.19
2023-05-02T21:13:30.327Z,97470.41
2023-05-02T21:15:56.960Z,97463.75
2023-05-02T21:18:23.498Z,97465.03
2023-05-02T21:20:50.003Z,97471.22
2023-05-02T21:23:16.555Z,97476.25
2023-05-02T21:25:43.157Z,97472.47
2023-05-02T21:28:11.035Z,97474.56
2023-05-02T21:30:37.568Z,97475.59
2023-05-02T21:33:04.150Z,97473.34
2023-05-02T21:35:30.829Z,97475.25
2023-05-02T21:37:57.284Z,97470.47
2023-05-02T21:40:23.675Z,97461.03
2023-05-02T21:42:50.253Z,97469.41
2023-05-02T21:45:16.790Z,97456.66
2023-05-02T21:47:43.372Z,97459.50
2023-05-02T21:50:10.049Z,97457.88
2023-05-02T21:52:36.579Z,97444.19
2023-05-02T21:55:03.132Z,97446.19
2023-05-02T21:57:29.666Z,97444.78
2023-05-02T21:59:56.286Z,97443.94
2023-05-02T22:02:22.832Z,97431.13
2023-05-02T22:04:49.423Z,97431.41
2023-05-02T22:07:15.968Z,97440.53
2023-05-02T22:09:42.604Z,97424.75
2023-05-02T22:12:09.152Z,97437.03
2023-05-02T22:14:44.281Z,97430.97
2023-05-02T22:17:12.047Z,97434.38
2023-05-02T22:19:38.581Z,97440.88
2023-05-02T22:22:05.130Z,97441.84
2023-05-02T22:24:31.641Z,97446.31
2023-05-02T22:26:58.141Z,97441.72
2023-05-02T22:29:24.619Z,97452.63
2023-05-02T22:31:51.160Z,97458.03
2023-05-02T22:34:17.647Z,97456.50
2023-05-02T22:36:44.395Z,97459.63
2023-05-02T22:39:10.951Z,97448.56
2023-05-02T22:41:37.546Z,97456.50
2023-05-02T22:44:03.978Z,97462.69
2023-05-02T22:46:30.432Z,97470.56
2023-05-02T22:48:56.869Z,97473.59
2023-05-02T22:51:23.350Z,97480.00
2023-05-02T22:53:49.833Z,97486.25
2023-05-02T22:56:16.323Z,97487.97
2023-05-02T22:58:45.551Z,97476.09
2023-05-02T23:01:12.100Z,97480.97
2023-05-02T23:03:38.834Z,97480.13
2023-05-02T23:06:05.437Z,97471.13
2023-05-02T23:08:32.028Z,97481.53
2023-05-02T23:10:58.563Z,97475.63
2023-05-02T23:13:25.141Z,97472.09
2023-05-02T23:15:51.734Z,97478.72
2023-05-02T23:18:18.249Z,97473.84
2023-05-02T23:20:44.698Z,97478.47
2023-05-02T23:23:11.169Z,97469.66
2023-05-02T23:25:37.737Z,97473.28
2023-05-02T23:28:04.304Z,97474.44
2023-05-02T23:30:30.829Z,97476.28
2023-05-02T23:32:57.344Z,97475.31
2023-05-02T23:35:23.931Z,97486.97
2023-05-02T23:37:50.434Z,97479.94
2023-05-02T23:40:16.927Z,97479.88
2023-05-02T23:42:43.484Z,97475.31
2023-05-02T23:45:10.120Z,97483.84
2023-05-02T23:47:36.724Z,97479.28
2023-05-02T23:50:03.467Z,97480.50
2023-05-02T23:52:30.297Z,97480.81
2023-05-02T23:54:56.848Z,97488.91
2023-05-02T23:57:23.541Z,97485.97
2023-05-02T23:59:50.098Z,97472.41
